sensor_id;sensor_type;location;lat;lon;timestamp;P1;durP1;ratioP1;P2;durP2;ratioP2
35699;SDS011;21818;51.078;12.108;2023-04-19T00:00:41;6.57;;;3.95;;
35699;SDS011;21818;51.078;12.108;2023-04-19T00:03:07;7.03;;;3.45;;
35699;SDS011;21818;51.078;12.108;2023-04-19T00:05:34;4.95;;;3.28;;
35699;SDS011;21818;51.078;12.108;2023-04-19T00:07:59;6.32;;;3.67;;
35699;SDS011;21818;51.078;12.108;2023-04-19T00:10:25;6.05;;;3.42;;
35699;SDS011;21818;51.078;12.108;2023-04-19T00:12:51;6.80;;;3.72;;
35699;SDS011;21818;51.078;12.108;2023-04-19T00:15:16;6.90;;;4.07;;
35699;SDS011;21818;51.078;12.108;2023-04-19T00:17:42;7.15;;;4.10;;
35699;SDS011;21818;51.078;12.108;2023-04-19T00:20:08;5.50;;;3.15;;
35699;SDS011;21818;51.078;12.108;2023-04-19T00:22:35;5.95;;;3.53;;
35699;SDS011;21818;51.078;12.108;2023-04-19T00:25:01;6.80;;;3.45;;
35699;SDS011;21818;51.078;12.108;2023-04-19T00:27:27;5.88;;;3.65;;
35699;SDS011;21818;51.078;12.108;2023-04-19T00:29:52;5.05;;;3.17;;
35699;SDS011;21818;51.078;12.108;2023-04-19T00:32:18;5.40;;;3.05;;
35699;SDS011;21818;51.078;12.108;2023-04-19T00:34:43;6.07;;;3.60;;
35699;SDS011;21818;51.078;12.108;2023-04-19T00:37:09;5.90;;;3.25;;
35699;SDS011;21818;51.078;12.108;2023-04-19T00:39:35;7.05;;;3.30;;
35699;SDS011;21818;51.078;12.108;2023-04-19T00:42:01;6.30;;;3.10;;
35699;SDS011;21818;51.078;12.108;2023-04-19T00:44:26;4.68;;;2.97;;
35699;SDS011;21818;51.078;12.108;2023-04-19T00:46:52;4.20;;;2.88;;
35699;SDS011;21818;51.078;12.108;2023-04-19T00:49:19;6.55;;;3.72;;
35699;SDS011;21818;51.078;12.108;2023-04-19T00:51:47;6.35;;;3.60;;
35699;SDS011;21818;51.078;12.108;2023-04-19T00:54:13;4.72;;;3.00;;
35699;SDS011;21818;51.078;12.108;2023-04-19T00:56:39;6.85;;;3.47;;
35699;SDS011;21818;51.078;12.108;2023-04-19T00:59:05;6.88;;;3.15;;
35699;SDS011;21818;51.078;12.108;2023-04-19T01:01:33;8.63;;;3.17;;
35699;SDS011;21818;51.078;12.108;2023-04-19T01:03:59;7.93;;;3.03;;
35699;SDS011;21818;51.078;12.108;2023-04-19T01:06:26;4.82;;;2.88;;
35699;SDS011;21818;51.078;12.108;2023-04-19T01:08:53;7.15;;;2.92;;
35699;SDS011;21818;51.078;12.108;2023-04-19T01:11:19;9.32;;;3.50;;
35699;SDS011;21818;51.078;12.108;2023-04-19T01:13:45;6.53;;;3.03;;
35699;SDS011;21818;51.078;12.108;2023-04-19T01:16:10;4.97;;;3.08;;
35699;SDS011;21818;51.078;12.108;2023-04-19T01:18:36;4.53;;;3.13;;
35699;SDS011;21818;51.078;12.108;2023-04-19T01:21:03;5.38;;;3.08;;
35699;SDS011;21818;51.078;12.108;2023-04-19T01:23:29;5.18;;;2.92;;
35699;SDS011;21818;51.078;12.108;2023-04-19T01:25:55;5.47;;;2.97;;
35699;SDS011;21818;51.078;12.108;2023-04-19T01:28:20;6.53;;;2.92;;
35699;SDS011;21818;51.078;12.108;2023-04-19T01:30:46;6.20;;;3.10;;
35699;SDS011;21818;51.078;12.108;2023-04-19T01:33:14;8.00;;;3.85;;
35699;SDS011;21818;51.078;12.108;2023-04-19T01:35:40;8.30;;;3.38;;
35699;SDS011;21818;51.078;12.108;2023-04-19T01:38:06;7.13;;;2.90;;
35699;SDS011;21818;51.078;12.108;2023-04-19T01:40:32;5.25;;;2.90;;
35699;SDS011;21818;51.078;12.108;2023-04-19T01:42:57;4.75;;;2.60;;
35699;SDS011;21818;51.078;12.108;2023-04-19T01:45:23;8.35;;;3.47;;
35699;SDS011;21818;51.078;12.108;2023-04-19T01:47:48;5.95;;;2.88;;
35699;SDS011;21818;51.078;12.108;2023-04-19T01:50:14;3.97;;;2.42;;
35699;SDS011;21818;51.078;12.108;2023-04-19T01:52:39;16.60;;;3.70;;
35699;SDS011;21818;51.078;12.108;2023-04-19T01:55:05;5.88;;;3.25;;
35699;SDS011;21818;51.078;12.108;2023-04-19T01:57:31;7.50;;;2.95;;
35699;SDS011;21818;51.078;12.108;2023-04-19T01:59:56;5.95;;;2.80;;
35699;SDS011;21818;51.078;12.108;2023-04-19T02:02:22;7.10;;;2.58;;
35699;SDS011;21818;51.078;12.108;2023-04-19T02:04:47;5.03;;;2.72;;
35699;SDS011;21818;51.078;12.108;2023-04-19T02:07:13;6.65;;;2.83;;
35699;SDS011;21818;51.078;12.108;2023-04-19T02:09:38;5.35;;;2.72;;
35699;SDS011;21818;51.078;12.108;2023-04-19T02:12:04;4.32;;;2.75;;
35699;SDS011;21818;51.078;12.108;2023-04-19T02:14:30;7.88;;;3.00;;
35699;SDS011;21818;51.078;12.108;2023-04-19T02:16:56;5.88;;;2.60;;
35699;SDS011;21818;51.078;12.108;2023-04-19T02:19:22;4.55;;;2.47;;
35699;SDS011;21818;51.078;12.108;2023-04-19T02:21:47;4.80;;;2.72;;
35699;SDS011;21818;51.078;12.108;2023-04-19T02:24:13;4.68;;;2.72;;
35699;SDS011;21818;51.078;12.108;2023-04-19T02:26:38;5.82;;;3.25;;
35699;SDS011;21818;51.078;12.108;2023-04-19T02:29:04;4.60;;;2.78;;
35699;SDS011;21818;51.078;12.108;2023-04-19T02:31:30;4.68;;;2.70;;
35699;SDS011;21818;51.078;12.108;2023-04-19T02:33:56;5.63;;;2.88;;
35699;SDS011;21818;51.078;12.108;2023-04-19T02:36:22;4.30;;;2.72;;
35699;SDS011;21818;51.078;12.108;2023-04-19T02:38:47;7.82;;;3.17;;
35699;SDS011;21818;51.078;12.108;2023-04-19T02:41:13;8.85;;;3.33;;
35699;SDS011;21818;51.078;12.108;2023-04-19T02:43:38;5.07;;;2.97;;
35699;SDS011;21818;51.078;12.108;2023-04-19T02:46:04;6.30;;;3.22;;
35699;SDS011;21818;51.078;12.108;2023-04-19T02:48:30;6.00;;;3.10;;
35699;SDS011;21818;51.078;12.108;2023-04-19T02:50:56;7.47;;;3.40;;
35699;SDS011;21818;51.078;12.108;2023-04-19T02:53:21;7.65;;;3.53;;
35699;SDS011;21818;51.078;12.108;2023-04-19T02:55:47;6.68;;;3.60;;
35699;SDS011;21818;51.078;12.108;2023-04-19T02:58:12;5.28;;;3.30;;
35699;SDS011;21818;51.078;12.108;2023-04-19T03:00:38;9.07;;;3.65;;
35699;SDS011;21818;51.078;12.108;2023-04-19T03:03:03;7.80;;;3.92;;
35699;SDS011;21818;51.078;12.108;2023-04-19T03:05:29;5.00;;;3.30;;
35699;SDS011;21818;51.078;12.108;2023-04-19T03:07:55;5.80;;;3.45;;
35699;SDS011;21818;51.078;12.108;2023-04-19T03:10:20;8.75;;;4.10;;
35699;SDS011;21818;51.078;12.108;2023-04-19T03:12:46;7.50;;;3.60;;
35699;SDS011;21818;51.078;12.108;2023-04-19T03:15:11;8.82;;;3.92;;
35699;SDS011;21818;51.078;12.108;2023-04-19T03:17:37;8.07;;;4.63;;
35699;SDS011;21818;51.078;12.108;2023-04-19T03:20:02;7.63;;;4.70;;
35699;SDS011;21818;51.078;12.108;2023-04-19T03:22:33;9.80;;;4.40;;
35699;SDS011;21818;51.078;12.108;2023-04-19T03:24:59;7.35;;;4.25;;
35699;SDS011;21818;51.078;12.108;2023-04-19T03:27:24;8.63;;;4.78;;
35699;SDS011;21818;51.078;12.108;2023-04-19T03:29:50;6.72;;;4.03;;
35699;SDS011;21818;51.078;12.108;2023-04-19T03:32:16;7.38;;;4.28;;
35699;SDS011;21818;51.078;12.108;2023-04-19T03:34:42;9.70;;;4.40;;
35699;SDS011;21818;51.078;12.108;2023-04-19T03:37:07;7.35;;;4.68;;
35699;SDS011;21818;51.078;12.108;2023-04-19T03:39:33;10.55;;;4.85;;
35699;SDS011;21818;51.078;12.108;2023-04-19T03:41:58;9.60;;;5.10;;
35699;SDS011;21818;51.078;12.108;2023-04-19T03:44:25;7.93;;;4.45;;
35699;SDS011;21818;51.078;12.108;2023-04-19T03:46:50;9.77;;;4.53;;
35699;SDS011;21818;51.078;12.108;2023-04-19T03:49:16;9.52;;;4.72;;
35699;SDS011;21818;51.078;12.108;2023-04-19T03:51:42;9.52;;;4.78;;
35699;SDS011;21818;51.078;12.108;2023-04-19T03:54:07;8.82;;;4.35;;
35699;SDS011;21818;51.078;12.108;2023-04-19T03:56:33;24.17;;;5.38;;
35699;SDS011;21818;51.078;12.108;2023-04-19T03:58:58;7.68;;;4.22;;
35699;SDS011;21818;51.078;12.108;2023-04-19T04:01:24;7.55;;;4.18;;
35699;SDS011;21818;51.078;12.108;2023-04-19T04:03:50;9.23;;;4.32;;
35699;SDS011;21818;51.078;12.108;2023-04-19T04:06:16;7.30;;;4.07;;
35699;SDS011;21818;51.078;12.108;2023-04-19T04:08:41;8.90;;;4.40;;
35699;SDS011;21818;51.078;12.108;2023-04-19T04:11:07;14.35;;;5.18;;
35699;SDS011;21818;51.078;12.108;2023-04-19T04:13:33;8.48;;;4.18;;
35699;SDS011;21818;51.078;12.108;2023-04-19T04:15:58;10.32;;;4.15;;
35699;SDS011;21818;51.078;12.108;2023-04-19T04:18:24;8.45;;;4.47;;
35699;SDS011;21818;51.078;12.108;2023-04-19T04:20:51;10.70;;;4.53;;
35699;SDS011;21818;51.078;12.108;2023-04-19T04:23:16;10.05;;;4.20;;
35699;SDS011;21818;51.078;12.108;2023-04-19T04:25:42;8.43;;;4.18;;
35699;SDS011;21818;51.078;12.108;2023-04-19T04:28:07;7.32;;;3.50;;
35699;SDS011;21818;51.078;12.108;2023-04-19T04:30:33;7.85;;;3.78;;
35699;SDS011;21818;51.078;12.108;2023-04-19T04:32:58;6.82;;;3.42;;
35699;SDS011;21818;51.078;12.108;2023-04-19T04:35:25;9.82;;;4.40;;
35699;SDS011;21818;51.078;12.108;2023-04-19T04:37:51;8.73;;;3.60;;
35699;SDS011;21818;51.078;12.108;2023-04-19T04:40:20;8.60;;;3.28;;
35699;SDS011;21818;51.078;12.108;2023-04-19T04:42:46;9.05;;;3.92;;
35699;SDS011;21818;51.078;12.108;2023-04-19T04:45:11;6.68;;;3.70;;
35699;SDS011;21818;51.078;12.108;2023-04-19T04:47:37;6.65;;;3.20;;
35699;SDS011;21818;51.078;12.108;2023-04-19T04:50:03;6.88;;;3.17;;
35699;SDS011;21818;51.078;12.108;2023-04-19T04:52:29;7.03;;;2.83;;
35699;SDS011;21818;51.078;12.108;2023-04-19T04:54:54;5.90;;;2.90;;
35699;SDS011;21818;51.078;12.108;2023-04-19T04:57:20;8.77;;;3.50;;
35699;SDS011;21818;51.078;12.108;2023-04-19T04:59:45;7.90;;;3.03;;
35699;SDS011;21818;51.078;12.108;2023-04-19T05:02:12;5.47;;;2.65;;
35699;SDS011;21818;51.078;12.108;2023-04-19T05:04:38;7.32;;;3.83;;
35699;SDS011;21818;51.078;12.108;2023-04-19T05:07:04;5.90;;;3.10;;
35699;SDS011;21818;51.078;12.108;2023-04-19T05:09:30;6.55;;;2.75;;
35699;SDS011;21818;51.078;12.108;2023-04-19T05:11:55;6.60;;;2.72;;
35699;SDS011;21818;51.078;12.108;2023-04-19T05:14:21;7.38;;;2.80;;
35699;SDS011;21818;51.078;12.108;2023-04-19T05:16:47;6.95;;;3.00;;
35699;SDS011;21818;51.078;12.108;2023-04-19T05:19:12;10.50;;;3.03;;
35699;SDS011;21818;51.078;12.108;2023-04-19T05:21:38;6.25;;;2.72;;
35699;SDS011;21818;51.078;12.108;2023-04-19T05:24:04;5.75;;;3.00;;
35699;SDS011;21818;51.078;12.108;2023-04-19T05:26:29;6.10;;;2.80;;
35699;SDS011;21818;51.078;12.108;2023-04-19T05:28:56;5.00;;;2.40;;
35699;SDS011;21818;51.078;12.108;2023-04-19T05:31:21;4.45;;;2.35;;
35699;SDS011;21818;51.078;12.108;2023-04-19T05:33:47;5.63;;;3.20;;
35699;SDS011;21818;51.078;12.108;2023-04-19T05:36:12;6.65;;;2.92;;
35699;SDS011;21818;51.078;12.108;2023-04-19T05:38:38;7.63;;;2.85;;
35699;SDS011;21818;51.078;12.108;2023-04-19T05:41:03;6.40;;;2.72;;
35699;SDS011;21818;51.078;12.108;2023-04-19T05:43:29;5.90;;;2.65;;
35699;SDS011;21818;51.078;12.108;2023-04-19T05:45:55;5.07;;;2.45;;
35699;SDS011;21818;51.078;12.108;2023-04-19T05:48:21;5.53;;;2.28;;
35699;SDS011;21818;51.078;12.108;2023-04-19T05:50:46;7.38;;;2.30;;
35699;SDS011;21818;51.078;12.108;2023-04-19T05:53:12;6.38;;;2.55;;
35699;SDS011;21818;51.078;12.108;2023-04-19T05:55:37;5.38;;;2.33;;
35699;SDS011;21818;51.078;12.108;2023-04-19T05:58:03;5.63;;;2.67;;
35699;SDS011;21818;51.078;12.108;2023-04-19T06:00:28;3.47;;;2.30;;
35699;SDS011;21818;51.078;12.108;2023-04-19T06:02:54;4.80;;;2.08;;
35699;SDS011;21818;51.078;12.108;2023-04-19T06:05:19;9.88;;;2.70;;
35699;SDS011;21818;51.078;12.108;2023-04-19T06:07:45;4.25;;;2.17;;
35699;SDS011;21818;51.078;12.108;2023-04-19T06:10:11;3.65;;;2.38;;
35699;SDS011;21818;51.078;12.108;2023-04-19T06:12:37;5.15;;;2.53;;
35699;SDS011;21818;51.078;12.108;2023-04-19T06:15:03;4.60;;;1.80;;
35699;SDS011;21818;51.078;12.108;2023-04-19T06:17:29;5.32;;;2.40;;
35699;SDS011;21818;51.078;12.108;2023-04-19T06:19:55;4.70;;;2.22;;
35699;SDS011;21818;51.078;12.108;2023-04-19T06:22:21;3.42;;;2.13;;
35699;SDS011;21818;51.078;12.108;2023-04-19T06:24:47;4.78;;;2.17;;
35699;SDS011;21818;51.078;12.108;2023-04-19T06:27:13;4.78;;;1.60;;
35699;SDS011;21818;51.078;12.108;2023-04-19T06:29:40;3.75;;;2.10;;
35699;SDS011;21818;51.078;12.108;2023-04-19T06:32:06;5.40;;;2.00;;
35699;SDS011;21818;51.078;12.108;2023-04-19T06:34:31;6.03;;;2.00;;
35699;SDS011;21818;51.078;12.108;2023-04-19T06:36:57;4.15;;;2.05;;
35699;SDS011;21818;51.078;12.108;2023-04-19T06:39:23;3.63;;;2.00;;
35699;SDS011;21818;51.078;12.108;2023-04-19T06:41:48;3.72;;;2.00;;
35699;SDS011;21818;51.078;12.108;2023-04-19T06:44:14;4.22;;;2.13;;
35699;SDS011;21818;51.078;12.108;2023-04-19T06:46:40;4.88;;;2.22;;
35699;SDS011;21818;51.078;12.108;2023-04-19T06:49:05;5.28;;;2.55;;
35699;SDS011;21818;51.078;12.108;2023-04-19T06:51:31;4.22;;;1.83;;
35699;SDS011;21818;51.078;12.108;2023-04-19T06:53:57;4.38;;;2.10;;
35699;SDS011;21818;51.078;12.108;2023-04-19T06:56:42;3.03;;;1.67;;
35699;SDS011;21818;51.078;12.108;2023-04-19T06:59:09;4.30;;;1.92;;
35699;SDS011;21818;51.078;12.108;2023-04-19T07:01:36;4.13;;;2.08;;
35699;SDS011;21818;51.078;12.108;2023-04-19T07:04:03;5.82;;;2.08;;
35699;SDS011;21818;51.078;12.108;2023-04-19T07:06:28;6.65;;;2.45;;
35699;SDS011;21818;51.078;12.108;2023-04-19T07:08:54;3.47;;;1.67;;
35699;SDS011;21818;51.078;12.108;2023-04-19T07:11:19;6.70;;;2.38;;
35699;SDS011;21818;51.078;12.108;2023-04-19T07:13:45;4.40;;;1.90;;
35699;SDS011;21818;51.078;12.108;2023-04-19T07:16:11;5.07;;;1.85;;
35699;SDS011;21818;51.078;12.108;2023-04-19T07:18:38;3.72;;;1.98;;
35699;SDS011;21818;51.078;12.108;2023-04-19T07:21:04;5.10;;;1.80;;
35699;SDS011;21818;51.078;12.108;2023-04-19T07:23:29;4.43;;;1.85;;
35699;SDS011;21818;51.078;12.108;2023-04-19T07:25:55;4.38;;;1.83;;
35699;SDS011;21818;51.078;12.108;2023-04-19T07:28:21;2.67;;;1.83;;
35699;SDS011;21818;51.078;12.108;2023-04-19T07:30:46;3.88;;;1.92;;
35699;SDS011;21818;51.078;12.108;2023-04-19T07:33:12;5.03;;;1.98;;
35699;SDS011;21818;51.078;12.108;2023-04-19T07:35:38;2.28;;;1.77;;
35699;SDS011;21818;51.078;12.108;2023-04-19T07:38:04;2.97;;;1.70;;
35699;SDS011;21818;51.078;12.108;2023-04-19T07:40:29;5.50;;;2.60;;
35699;SDS011;21818;51.078;12.108;2023-04-19T07:42:56;4.03;;;1.65;;
35699;SDS011;21818;51.078;12.108;2023-04-19T07:45:22;4.95;;;1.70;;
35699;SDS011;21818;51.078;12.108;2023-04-19T07:47:47;4.47;;;1.65;;
35699;SDS011;21818;51.078;12.108;2023-04-19T07:50:13;3.58;;;1.95;;
35699;SDS011;21818;51.078;12.108;2023-04-19T07:52:38;5.30;;;2.00;;
35699;SDS011;21818;51.078;12.108;2023-04-19T07:55:04;5.65;;;1.88;;
35699;SDS011;21818;51.078;12.108;2023-04-19T07:57:30;5.15;;;2.05;;
35699;SDS011;21818;51.078;12.108;2023-04-19T07:59:56;3.50;;;1.88;;
35699;SDS011;21818;51.078;12.108;2023-04-19T08:02:22;4.57;;;1.90;;
35699;SDS011;21818;51.078;12.108;2023-04-19T08:04:48;5.95;;;1.75;;
35699;SDS011;21818;51.078;12.108;2023-04-19T08:07:15;5.72;;;1.77;;
35699;SDS011;21818;51.078;12.108;2023-04-19T08:09:41;7.47;;;2.13;;
35699;SDS011;21818;51.078;12.108;2023-04-19T08:12:06;3.72;;;1.70;;
35699;SDS011;21818;51.078;12.108;2023-04-19T08:14:32;3.80;;;2.08;;
35699;SDS011;21818;51.078;12.108;2023-04-19T08:16:57;3.15;;;1.50;;
35699;SDS011;21818;51.078;12.108;2023-04-19T08:19:23;3.58;;;1.88;;
35699;SDS011;21818;51.078;12.108;2023-04-19T08:21:49;4.50;;;2.13;;
35699;SDS011;21818;51.078;12.108;2023-04-19T08:24:14;3.63;;;1.90;;
35699;SDS011;21818;51.078;12.108;2023-04-19T08:26:40;3.65;;;1.60;;
35699;SDS011;21818;51.078;12.108;2023-04-19T08:29:06;5.30;;;1.75;;
35699;SDS011;21818;51.078;12.108;2023-04-19T08:31:31;3.33;;;1.55;;
35699;SDS011;21818;51.078;12.108;2023-04-19T08:33:57;4.95;;;1.80;;
35699;SDS011;21818;51.078;12.108;2023-04-19T08:36:24;4.18;;;2.03;;
35699;SDS011;21818;51.078;12.108;2023-04-19T08:38:50;4.53;;;1.50;;
35699;SDS011;21818;51.078;12.108;2023-04-19T08:41:16;3.25;;;1.70;;
35699;SDS011;21818;51.078;12.108;2023-04-19T08:43:43;2.67;;;1.52;;
35699;SDS011;21818;51.078;12.108;2023-04-19T08:46:10;3.30;;;1.75;;
35699;SDS011;21818;51.078;12.108;2023-04-19T08:48:36;4.97;;;1.80;;
35699;SDS011;21818;51.078;12.108;2023-04-19T08:51:02;4.15;;;1.88;;
35699;SDS011;21818;51.078;12.108;2023-04-19T08:53:28;3.75;;;1.75;;
35699;SDS011;21818;51.078;12.108;2023-04-19T08:55:54;3.33;;;1.90;;
35699;SDS011;21818;51.078;12.108;2023-04-19T08:58:23;3.03;;;1.50;;
35699;SDS011;21818;51.078;12.108;2023-04-19T09:00:50;4.00;;;1.50;;
35699;SDS011;21818;51.078;12.108;2023-04-19T09:03:15;3.45;;;2.00;;
35699;SDS011;21818;51.078;12.108;2023-04-19T09:05:41;4.40;;;1.70;;
35699;SDS011;21818;51.078;12.108;2023-04-19T09:10:51;3.10;;;1.38;;
35699;SDS011;21818;51.078;12.108;2023-04-19T09:13:25;2.70;;;1.35;;
35699;SDS011;21818;51.078;12.108;2023-04-19T09:15:52;6.13;;;1.75;;
35699;SDS011;21818;51.078;12.108;2023-04-19T09:18:18;2.65;;;1.40;;
35699;SDS011;21818;51.078;12.108;2023-04-19T09:20:44;5.43;;;2.08;;
35699;SDS011;21818;51.078;12.108;2023-04-19T09:23:12;4.28;;;1.90;;
35699;SDS011;21818;51.078;12.108;2023-04-19T09:25:53;2.75;;;1.63;;
35699;SDS011;21818;51.078;12.108;2023-04-19T09:28:22;2.97;;;1.50;;
35699;SDS011;21818;51.078;12.108;2023-04-19T09:30:48;4.97;;;1.73;;
35699;SDS011;21818;51.078;12.108;2023-04-19T09:33:30;3.08;;;1.70;;
35699;SDS011;21818;51.078;12.108;2023-04-19T09:35:57;4.70;;;1.90;;
35699;SDS011;21818;51.078;12.108;2023-04-19T09:38:23;2.47;;;1.30;;
35699;SDS011;21818;51.078;12.108;2023-04-19T09:40:49;2.10;;;1.30;;
35699;SDS011;21818;51.078;12.108;2023-04-19T09:43:23;3.28;;;1.27;;
35699;SDS011;21818;51.078;12.108;2023-04-19T09:45:51;2.63;;;2.00;;
35699;SDS011;21818;51.078;12.108;2023-04-19T09:48:17;3.05;;;1.58;;
35699;SDS011;21818;51.078;12.108;2023-04-19T09:50:52;2.83;;;1.40;;
35699;SDS011;21818;51.078;12.108;2023-04-19T09:53:20;4.20;;;1.42;;
35699;SDS011;21818;51.078;12.108;2023-04-19T09:55:46;4.63;;;1.75;;
35699;SDS011;21818;51.078;12.108;2023-04-19T09:58:13;3.33;;;1.30;;
35699;SDS011;21818;51.078;12.108;2023-04-19T10:00:45;4.43;;;1.85;;
35699;SDS011;21818;51.078;12.108;2023-04-19T10:03:13;3.90;;;1.67;;
35699;SDS011;21818;51.078;12.108;2023-04-19T10:05:40;4.55;;;1.50;;
35699;SDS011;21818;51.078;12.108;2023-04-19T10:08:07;3.03;;;1.70;;
35699;SDS011;21818;51.078;12.108;2023-04-19T10:10:34;2.42;;;1.70;;
35699;SDS011;21818;51.078;12.108;2023-04-19T10:13:01;3.78;;;1.60;;
35699;SDS011;21818;51.078;12.108;2023-04-19T10:15:28;3.10;;;1.42;;
35699;SDS011;21818;51.078;12.108;2023-04-19T10:17:55;4.65;;;2.10;;
35699;SDS011;21818;51.078;12.108;2023-04-19T10:20:26;4.65;;;1.50;;
35699;SDS011;21818;51.078;12.108;2023-04-19T10:23:01;5.57;;;3.20;;
35699;SDS011;21818;51.078;12.108;2023-04-19T10:25:30;5.68;;;2.10;;
35699;SDS011;21818;51.078;12.108;2023-04-19T10:27:56;6.60;;;3.78;;
35699;SDS011;21818;51.078;12.108;2023-04-19T10:30:22;15.40;;;7.85;;
35699;SDS011;21818;51.078;12.108;2023-04-19T10:32:54;4.97;;;2.03;;
35699;SDS011;21818;51.078;12.108;2023-04-19T10:35:22;3.67;;;1.92;;
35699;SDS011;21818;51.078;12.108;2023-04-19T10:43:28;2.97;;;1.45;;
35699;SDS011;21818;51.078;12.108;2023-04-19T10:51:04;2.85;;;1.50;;
35699;SDS011;21818;51.078;12.108;2023-04-19T11:04:04;3.70;;;1.77;;
35699;SDS011;21818;51.078;12.108;2023-04-19T11:06:33;2.90;;;1.70;;
35699;SDS011;21818;51.078;12.108;2023-04-19T11:09:00;3.65;;;1.50;;
35699;SDS011;21818;51.078;12.108;2023-04-19T11:11:31;4.50;;;1.65;;
35699;SDS011;21818;51.078;12.108;2023-04-19T11:13:59;2.83;;;1.63;;
35699;SDS011;21818;51.078;12.108;2023-04-19T11:16:26;3.70;;;1.80;;
35699;SDS011;21818;51.078;12.108;2023-04-19T11:18:52;3.65;;;1.30;;
35699;SDS011;21818;51.078;12.108;2023-04-19T11:21:19;2.88;;;1.50;;
35699;SDS011;21818;51.078;12.108;2023-04-19T11:23:45;3.20;;;1.50;;
35699;SDS011;21818;51.078;12.108;2023-04-19T11:26:13;2.05;;;1.27;;
35699;SDS011;21818;51.078;12.108;2023-04-19T11:28:38;1.98;;;1.48;;
35699;SDS011;21818;51.078;12.108;2023-04-19T11:31:04;3.70;;;1.88;;
35699;SDS011;21818;51.078;12.108;2023-04-19T11:33:34;2.70;;;1.60;;
35699;SDS011;21818;51.078;12.108;2023-04-19T11:36:00;2.15;;;1.67;;
35699;SDS011;21818;51.078;12.108;2023-04-19T11:38:27;2.00;;;1.33;;
35699;SDS011;21818;51.078;12.108;2023-04-19T11:40:59;4.75;;;1.42;;
35699;SDS011;21818;51.078;12.108;2023-04-19T11:43:32;2.47;;;1.30;;
35699;SDS011;21818;51.078;12.108;2023-04-19T11:48:31;2.53;;;1.30;;
35699;SDS011;21818;51.078;12.108;2023-04-19T11:50:57;2.58;;;1.35;;
35699;SDS011;21818;51.078;12.108;2023-04-19T11:53:24;2.95;;;1.60;;
35699;SDS011;21818;51.078;12.108;2023-04-19T11:55:56;2.75;;;1.60;;
35699;SDS011;21818;51.078;12.108;2023-04-19T11:58:28;4.55;;;2.15;;
35699;SDS011;21818;51.078;12.108;2023-04-19T12:01:01;3.78;;;1.63;;
35699;SDS011;21818;51.078;12.108;2023-04-19T12:03:34;4.10;;;1.73;;
35699;SDS011;21818;51.078;12.108;2023-04-19T12:06:04;3.40;;;1.70;;
35699;SDS011;21818;51.078;12.108;2023-04-19T12:08:34;2.53;;;1.50;;
35699;SDS011;21818;51.078;12.108;2023-04-19T12:11:01;3.05;;;1.33;;
35699;SDS011;21818;51.078;12.108;2023-04-19T12:13:28;2.47;;;1.58;;
35699;SDS011;21818;51.078;12.108;2023-04-19T12:15:55;2.25;;;1.40;;
35699;SDS011;21818;51.078;12.108;2023-04-19T12:18:21;2.88;;;1.33;;
35699;SDS011;21818;51.078;12.108;2023-04-19T12:20:48;3.42;;;1.25;;
35699;SDS011;21818;51.078;12.108;2023-04-19T12:23:16;2.20;;;1.33;;
35699;SDS011;21818;51.078;12.108;2023-04-19T12:25:43;2.20;;;1.20;;
35699;SDS011;21818;51.078;12.108;2023-04-19T12:28:11;1.75;;;1.10;;
35699;SDS011;21818;51.078;12.108;2023-04-19T12:30:37;2.50;;;1.60;;
35699;SDS011;21818;51.078;12.108;2023-04-19T12:33:04;1.95;;;1.23;;
35699;SDS011;21818;51.078;12.108;2023-04-19T12:35:31;2.83;;;1.45;;
35699;SDS011;21818;51.078;12.108;2023-04-19T12:37:58;2.72;;;1.38;;
35699;SDS011;21818;51.078;12.108;2023-04-19T12:40:24;2.25;;;1.40;;
35699;SDS011;21818;51.078;12.108;2023-04-19T12:42:51;3.65;;;1.45;;
35699;SDS011;21818;51.078;12.108;2023-04-19T12:45:17;2.88;;;1.25;;
35699;SDS011;21818;51.078;12.108;2023-04-19T12:47:44;3.13;;;1.27;;
35699;SDS011;21818;51.078;12.108;2023-04-19T12:50:11;1.80;;;1.30;;
35699;SDS011;21818;51.078;12.108;2023-04-19T12:52:37;2.45;;;1.15;;
35699;SDS011;21818;51.078;12.108;2023-04-19T12:55:03;3.22;;;1.52;;
35699;SDS011;21818;51.078;12.108;2023-04-19T12:57:29;2.13;;;1.35;;
35699;SDS011;21818;51.078;12.108;2023-04-19T12:59:55;2.83;;;1.27;;
35699;SDS011;21818;51.078;12.108;2023-04-19T13:02:21;2.53;;;1.30;;
35699;SDS011;21818;51.078;12.108;2023-04-19T13:04:46;1.52;;;1.00;;
35699;SDS011;21818;51.078;12.108;2023-04-19T13:07:12;2.60;;;1.48;;
35699;SDS011;21818;51.078;12.108;2023-04-19T13:09:37;1.80;;;1.30;;
35699;SDS011;21818;51.078;12.108;2023-04-19T13:12:06;2.00;;;1.27;;
35699;SDS011;21818;51.078;12.108;2023-04-19T13:14:32;1.45;;;1.15;;
35699;SDS011;21818;51.078;12.108;2023-04-19T13:16:58;1.98;;;1.20;;
35699;SDS011;21818;51.078;12.108;2023-04-19T13:19:23;2.28;;;1.00;;
35699;SDS011;21818;51.078;12.108;2023-04-19T13:21:49;2.63;;;1.60;;
35699;SDS011;21818;51.078;12.108;2023-04-19T13:24:15;1.75;;;1.08;;
35699;SDS011;21818;51.078;12.108;2023-04-19T13:26:41;2.45;;;1.50;;
35699;SDS011;21818;51.078;12.108;2023-04-19T13:29:06;2.28;;;1.27;;
35699;SDS011;21818;51.078;12.108;2023-04-19T13:31:35;1.70;;;1.17;;
35699;SDS011;21818;51.078;12.108;2023-04-19T13:34:00;4.55;;;1.52;;
35699;SDS011;21818;51.078;12.108;2023-04-19T13:36:26;3.53;;;1.17;;
35699;SDS011;21818;51.078;12.108;2023-04-19T13:38:52;3.95;;;1.40;;
35699;SDS011;21818;51.078;12.108;2023-04-19T13:41:18;3.97;;;1.30;;
35699;SDS011;21818;51.078;12.108;2023-04-19T13:43:44;2.80;;;1.50;;
35699;SDS011;21818;51.078;12.108;2023-04-19T13:46:09;1.60;;;1.10;;
35699;SDS011;21818;51.078;12.108;2023-04-19T13:48:35;1.70;;;1.02;;
35699;SDS011;21818;51.078;12.108;2023-04-19T13:51:01;3.38;;;1.27;;
35699;SDS011;21818;51.078;12.108;2023-04-19T13:53:26;2.17;;;1.00;;
35699;SDS011;21818;51.078;12.108;2023-04-19T13:55:53;3.05;;;1.52;;
35699;SDS011;21818;51.078;12.108;2023-04-19T13:58:19;2.60;;;1.50;;
35699;SDS011;21818;51.078;12.108;2023-04-19T14:00:44;2.35;;;1.30;;
35699;SDS011;21818;51.078;12.108;2023-04-19T14:03:12;3.88;;;1.30;;
35699;SDS011;21818;51.078;12.108;2023-04-19T14:05:37;1.95;;;1.30;;
35699;SDS011;21818;51.078;12.108;2023-04-19T14:08:03;2.50;;;1.60;;
35699;SDS011;21818;51.078;12.108;2023-04-19T14:10:29;1.80;;;1.25;;
35699;SDS011;21818;51.078;12.108;2023-04-19T14:12:55;2.38;;;1.35;;
35699;SDS011;21818;51.078;12.108;2023-04-19T14:15:20;4.00;;;1.55;;
35699;SDS011;21818;51.078;12.108;2023-04-19T14:17:47;2.80;;;1.65;;
35699;SDS011;21818;51.078;12.108;2023-04-19T14:20:15;2.10;;;1.08;;
35699;SDS011;21818;51.078;12.108;2023-04-19T14:22:41;1.98;;;1.15;;
35699;SDS011;21818;51.078;12.108;2023-04-19T14:25:07;2.60;;;1.13;;
35699;SDS011;21818;51.078;12.108;2023-04-19T14:27:33;1.55;;;1.00;;
35699;SDS011;21818;51.078;12.108;2023-04-19T14:29:59;3.10;;;1.42;;
35699;SDS011;21818;51.078;12.108;2023-04-19T14:32:25;1.98;;;1.58;;
35699;SDS011;21818;51.078;12.108;2023-04-19T14:34:51;1.98;;;1.15;;
35699;SDS011;21818;51.078;12.108;2023-04-19T14:37:17;2.42;;;1.33;;
35699;SDS011;21818;51.078;12.108;2023-04-19T14:39:43;1.85;;;1.05;;
35699;SDS011;21818;51.078;12.108;2023-04-19T14:42:09;2.72;;;1.20;;
35699;SDS011;21818;51.078;12.108;2023-04-19T14:44:35;2.60;;;1.10;;
35699;SDS011;21818;51.078;12.108;2023-04-19T14:47:01;3.35;;;1.35;;
35699;SDS011;21818;51.078;12.108;2023-04-19T14:49:27;2.42;;;1.35;;
35699;SDS011;21818;51.078;12.108;2023-04-19T14:51:53;1.83;;;0.93;;
35699;SDS011;21818;51.078;12.108;2023-04-19T14:54:18;2.85;;;1.13;;